sensor_id;sensor_type;location;lat;lon;timestamp;temperature;humidity
59556;DHT22;45374;52.746;6.304;2023-05-01T00:00:49;8.50;99.90
59556;DHT22;45374;52.746;6.304;2023-05-01T00:03:15;8.50;99.90
59556;DHT22;45374;52.746;6.304;2023-05-01T00:05:43;8.40;99.90
59556;DHT22;45374;52.746;6.304;2023-05-01T00:08:09;8.40;99.90
59556;DHT22;45374;52.746;6.304;2023-05-01T00:10:35;8.40;99.90
59556;DHT22;45374;52.746;6.304;2023-05-01T00:13:01;8.40;99.90
59556;DHT22;45374;52.746;6.304;2023-05-01T00:15:26;8.40;99.90
59556;DHT22;45374;52.746;6.304;2023-05-01T00:17:53;8.40;99.90
59556;DHT22;45374;52.746;6.304;2023-05-01T00:20:18;8.30;99.90
59556;DHT22;45374;52.746;6.304;2023-05-01T00:22:44;8.30;99.90
59556;DHT22;45374;52.746;6.304;2023-05-01T00:25:09;8.30;99.90
59556;DHT22;45374;52.746;6.304;2023-05-01T00:27:35;8.30;99.90
59556;DHT22;45374;52.746;6.304;2023-05-01T00:30:01;8.20;99.90
59556;DHT22;45374;52.746;6.304;2023-05-01T00:32:27;8.20;99.90
59556;DHT22;45374;52.746;6.304;2023-05-01T00:34:53;8.20;99.90
59556;DHT22;45374;52.746;6.304;2023-05-01T00:37:20;8.20;99.90
59556;DHT22;45374;52.746;6.304;2023-05-01T00:39:46;8.10;99.90
59556;DHT22;45374;52.746;6.304;2023-05-01T00:42:11;8.10;99.90
59556;DHT22;45374;52.746;6.304;2023-05-01T00:44:37;8.10;99.90
59556;DHT22;45374;52.746;6.304;2023-05-01T00:47:03;8.00;99.90
59556;DHT22;45374;52.746;6.304;2023-05-01T00:49:29;8.00;99.90
59556;DHT22;45374;52.746;6.304;2023-05-01T00:51:55;8.00;99.90
59556;DHT22;45374;52.746;6.304;2023-05-01T00:54:21;8.00;99.90
59556;DHT22;45374;52.746;6.304;2023-05-01T00:56:47;8.00;99.90
59556;DHT22;45374;52.746;6.304;2023-05-01T00:59:13;7.90;99.90
59556;DHT22;45374;52.746;6.304;2023-05-01T01:01:42;7.90;99.90
59556;DHT22;45374;52.746;6.304;2023-05-01T01:04:08;7.90;99.90
59556;DHT22;45374;52.746;6.304;2023-05-01T01:09:30;7.90;99.90
59556;DHT22;45374;52.746;6.304;2023-05-01T01:12:07;7.80;99.90
59556;DHT22;45374;52.746;6.304;2023-05-01T01:17:55;7.80;99.90
59556;DHT22;45374;52.746;6.304;2023-05-01T01:20:43;7.70;99.90
59556;DHT22;45374;52.746;6.304;2023-05-01T01:25:49;7.70;99.90
59556;DHT22;45374;52.746;6.304;2023-05-01T01:36:45;7.60;99.90
59556;DHT22;45374;52.746;6.304;2023-05-01T01:42:01;7.50;99.90
59556;DHT22;45374;52.746;6.304;2023-05-01T01:44:46;7.50;99.90
59556;DHT22;45374;52.746;6.304;2023-05-01T01:47:14;7.50;99.90
59556;DHT22;45374;52.746;6.304;2023-05-01T01:49:44;7.50;99.90
59556;DHT22;45374;52.746;6.304;2023-05-01T01:52:12;7.50;99.90
59556;DHT22;45374;52.746;6.304;2023-05-01T01:54:49;7.50;99.90
59556;DHT22;45374;52.746;6.304;2023-05-01T01:57:18;7.50;99.90
59556;DHT22;45374;52.746;6.304;2023-05-01T01:59:46;7.50;99.90
59556;DHT22;45374;52.746;6.304;2023-05-01T02:02:15;7.40;99.90
59556;DHT22;45374;52.746;6.304;2023-05-01T02:04:42;7.40;99.90
59556;DHT22;45374;52.746;6.304;2023-05-01T02:07:10;7.40;99.90
59556;DHT22;45374;52.746;6.304;2023-05-01T02:09:37;7.40;99.90
59556;DHT22;45374;52.746;6.304;2023-05-01T02:12:05;7.40;99.90
59556;DHT22;45374;52.746;6.304;2023-05-01T02:14:32;7.40;99.90
59556;DHT22;45374;52.746;6.304;2023-05-01T02:16:58;7.30;99.90
59556;DHT22;45374;52.746;6.304;2023-05-01T02:19:24;7.30;99.90
59556;DHT22;45374;52.746;6.304;2023-05-01T02:21:53;7.30;99.90
59556;DHT22;45374;52.746;6.304;2023-05-01T02:24:21;7.30;99.90
59556;DHT22;45374;52.746;6.304;2023-05-01T02:26:56;7.20;99.90
59556;DHT22;45374;52.746;6.304;2023-05-01T02:29:24;7.20;99.90
59556;DHT22;45374;52.746;6.304;2023-05-01T02:31:50;7.20;99.90
59556;DHT22;45374;52.746;6.304;2023-05-01T02:34:16;7.20;99.90
59556;DHT22;45374;52.746;6.304;2023-05-01T02:36:41;7.10;99.90
59556;DHT22;45374;52.746;6.304;2023-05-01T02:39:07;7.10;99.90
59556;DHT22;45374;52.746;6.304;2023-05-01T02:41:34;7.10;99.90
59556;DHT22;45374;52.746;6.304;2023-05-01T02:44:02;7.10;99.90
59556;DHT22;45374;52.746;6.304;2023-05-01T02:46:30;7.00;99.90
59556;DHT22;45374;52.746;6.304;2023-05-01T02:49:00;7.00;99.90
59556;DHT22;45374;52.746;6.304;2023-05-01T02:51:27;7.00;99.90
59556;DHT22;45374;52.746;6.304;2023-05-01T02:53:53;7.00;99.90
59556;DHT22;45374;52.746;6.304;2023-05-01T02:56:19;6.90;99.90
59556;DHT22;45374;52.746;6.304;2023-05-01T02:58:46;6.90;99.90
59556;DHT22;45374;52.746;6.304;2023-05-01T03:01:13;6.90;99.90
59556;DHT22;45374;52.746;6.304;2023-05-01T03:03:38;6.80;99.90
59556;DHT22;45374;52.746;6.304;2023-05-01T03:06:04;6.80;99.90
59556;DHT22;45374;52.746;6.304;2023-05-01T03:08:30;6.80;99.90
59556;DHT22;45374;52.746;6.304;2023-05-01T03:10:55;6.80;99.90
59556;DHT22;45374;52.746;6.304;2023-05-01T03:13:21;6.80;99.90
59556;DHT22;45374;52.746;6.304;2023-05-01T03:15:47;6.70;99.90
59556;DHT22;45374;52.746;6.304;2023-05-01T03:18:12;6.70;99.90
59556;DHT22;45374;52.746;6.304;2023-05-01T03:20:38;6.70;99.90
59556;DHT22;45374;52.746;6.304;2023-05-01T03:23:03;6.70;99.90
59556;DHT22;45374;52.746;6.304;2023-05-01T03:25:29;6.60;99.90
59556;DHT22;45374;52.746;6.304;2023-05-01T03:27:54;6.60;99.90
59556;DHT22;45374;52.746;6.304;2023-05-01T03:30:20;6.60;99.90
59556;DHT22;45374;52.746;6.304;2023-05-01T03:32:45;6.60;99.90
59556;DHT22;45374;52.746;6.304;2023-05-01T03:35:11;6.50;99.90
59556;DHT22;45374;52.746;6.304;2023-05-01T03:37:37;6.50;99.90
59556;DHT22;45374;52.746;6.304;2023-05-01T03:40:03;6.50;99.90
59556;DHT22;45374;52.746;6.304;2023-05-01T03:42:28;6.50;99.90
59556;DHT22;45374;52.746;6.304;2023-05-01T03:44:54;6.50;99.90
59556;DHT22;45374;52.746;6.304;2023-05-01T03:47:19;6.50;99.90
59556;DHT22;45374;52.746;6.304;2023-05-01T03:49:45;6.50;99.90
59556;DHT22;45374;52.746;6.304;2023-05-01T03:52:10;6.40;99.90
59556;DHT22;45374;52.746;6.304;2023-05-01T03:54:37;6.40;99.90
59556;DHT22;45374;52.746;6.304;2023-05-01T03:57:03;6.40;99.90
59556;DHT22;45374;52.746;6.304;2023-05-01T03:59:29;6.40;99.90
59556;DHT22;45374;52.746;6.304;2023-05-01T04:01:54;6.40;99.90
59556;DHT22;45374;52.746;6.304;2023-05-01T04:04:22;6.30;99.90
59556;DHT22;45374;52.746;6.304;2023-05-01T04:06:47;6.40;99.90
59556;DHT22;45374;52.746;6.304;2023-05-01T04:09:14;6.30;99.90
59556;DHT22;45374;52.746;6.304;2023-05-01T04:11:40;6.40;99.90
59556;DHT22;45374;52.746;6.304;2023-05-01T04:14:05;6.40;99.90
59556;DHT22;45374;52.746;6.304;2023-05-01T04:16:31;6.40;99.90
59556;DHT22;45374;52.746;6.304;2023-05-01T04:18:56;6.40;99.90
59556;DHT22;45374;52.746;6.304;2023-05-01T04:21:22;6.40;99.90
59556;DHT22;45374;52.746;6.304;2023-05-01T04:23:47;6.40;99.90
59556;DHT22;45374;52.746;6.304;2023-05-01T04:26:13;6.40;99.90
59556;DHT22;45374;52.746;6.304;2023-05-01T04:28:38;6.40;99.90
59556;DHT22;45374;52.746;6.304;2023-05-01T04:31:04;6.50;99.90
59556;DHT22;45374;52.746;6.304;2023-05-01T04:33:30;6.50;99.90
59556;DHT22;45374;52.746;6.304;2023-05-01T04:35:55;6.60;99.90
59556;DHT22;45374;52.746;6.304;2023-05-01T04:38:21;6.50;99.90
59556;DHT22;45374;52.746;6.304;2023-05-01T04:40:46;6.60;99.90
59556;DHT22;45374;52.746;6.304;2023-05-01T04:43:12;6.60;99.90
59556;DHT22;45374;52.746;6.304;2023-05-01T04:45:38;6.70;99.90
59556;DHT22;45374;52.746;6.304;2023-05-01T04:48:03;6.60;99.90
59556;DHT22;45374;52.746;6.304;2023-05-01T04:50:29;6.70;99.90
59556;DHT22;45374;52.746;6.304;2023-05-01T04:52:55;6.70;99.90
59556;DHT22;45374;52.746;6.304;2023-05-01T04:55:20;6.70;99.90
59556;DHT22;45374;52.746;6.304;2023-05-01T04:57:46;6.70;99.90
59556;DHT22;45374;52.746;6.304;2023-05-01T05:00:12;6.70;99.90
59556;DHT22;45374;52.746;6.304;2023-05-01T05:02:37;6.80;99.90
59556;DHT22;45374;52.746;6.304;2023-05-01T05:05:03;6.80;99.90
59556;DHT22;45374;52.746;6.304;2023-05-01T05:07:29;6.80;99.90
59556;DHT22;45374;52.746;6.304;2023-05-01T05:09:54;6.90;99.90
59556;DHT22;45374;52.746;6.304;2023-05-01T05:12:20;6.90;99.90
59556;DHT22;45374;52.746;6.304;2023-05-01T05:14:46;7.00;99.90
59556;DHT22;45374;52.746;6.304;2023-05-01T05:17:12;7.00;99.90
59556;DHT22;45374;52.746;6.304;2023-05-01T05:19:38;7.10;99.90
59556;DHT22;45374;52.746;6.304;2023-05-01T05:22:03;7.20;99.90
59556;DHT22;45374;52.746;6.304;2023-05-01T05:24:30;7.30;99.90
59556;DHT22;45374;52.746;6.304;2023-05-01T05:26:55;7.40;99.90
59556;DHT22;45374;52.746;6.304;2023-05-01T05:29:21;7.40;99.90
59556;DHT22;45374;52.746;6.304;2023-05-01T05:31:47;7.50;99.90
59556;DHT22;45374;52.746;6.304;2023-05-01T05:34:13;7.50;99.90
59556;DHT22;45374;52.746;6.304;2023-05-01T05:36:38;7.60;99.90
59556;DHT22;45374;52.746;6.304;2023-05-01T05:39:05;7.70;99.90
59556;DHT22;45374;52.746;6.304;2023-05-01T05:41:30;7.90;99.90
59556;DHT22;45374;52.746;6.304;2023-05-01T05:43:56;8.00;99.90
59556;DHT22;45374;52.746;6.304;2023-05-01T05:46:21;8.10;99.90
59556;DHT22;45374;52.746;6.304;2023-05-01T05:48:47;8.20;99.90
59556;DHT22;45374;52.746;6.304;2023-05-01T05:51:13;8.40;99.90
59556;DHT22;45374;52.746;6.304;2023-05-01T05:53:38;8.50;99.90
59556;DHT22;45374;52.746;6.304;2023-05-01T05:56:04;8.60;99.90
59556;DHT22;45374;52.746;6.304;2023-05-01T05:58:30;8.80;99.90
59556;DHT22;45374;52.746;6.304;2023-05-01T06:00:55;8.90;99.90
59556;DHT22;45374;52.746;6.304;2023-05-01T06:03:21;9.00;99.90
59556;DHT22;45374;52.746;6.304;2023-05-01T06:05:47;9.20;99.90
59556;DHT22;45374;52.746;6.304;2023-05-01T06:08:13;9.30;99.90
59556;DHT22;45374;52.746;6.304;2023-05-01T06:10:41;9.40;99.90
59556;DHT22;45374;52.746;6.304;2023-05-01T06:13:06;9.60;99.90
59556;DHT22;45374;52.746;6.304;2023-05-01T06:15:39;9.70;99.90
59556;DHT22;45374;52.746;6.304;2023-05-01T06:18:05;9.80;99.90
59556;DHT22;45374;52.746;6.304;2023-05-01T06:20:31;9.90;99.90
59556;DHT22;45374;52.746;6.304;2023-05-01T06:22:56;10.00;99.90
59556;DHT22;45374;52.746;6.304;2023-05-01T06:25:22;10.10;99.90
59556;DHT22;45374;52.746;6.304;2023-05-01T06:27:49;10.20;99.90
59556;DHT22;45374;52.746;6.304;2023-05-01T06:30:14;10.30;99.90
59556;DHT22;45374;52.746;6.304;2023-05-01T06:32:41;10.40;99.90
59556;DHT22;45374;52.746;6.304;2023-05-01T06:35:08;10.50;99.90
59556;DHT22;45374;52.746;6.304;2023-05-01T06:37:34;10.60;99.90
59556;DHT22;45374;52.746;6.304;2023-05-01T06:40:00;10.60;99.90
59556;DHT22;45374;52.746;6.304;2023-05-01T06:42:25;10.70;99.90
59556;DHT22;45374;52.746;6.304;2023-05-01T06:44:51;10.90;99.90
59556;DHT22;45374;52.746;6.304;2023-05-01T06:47:16;11.00;99.90
59556;DHT22;45374;52.746;6.304;2023-05-01T06:49:42;11.10;99.90
59556;DHT22;45374;52.746;6.304;2023-05-01T06:52:08;11.20;99.90
59556;DHT22;45374;52.746;6.304;2023-05-01T06:54:33;11.30;99.90
59556;DHT22;45374;52.746;6.304;2023-05-01T06:56:59;11.40;99.90
59556;DHT22;45374;52.746;6.304;2023-05-01T06:59:40;11.50;99.90
59556;DHT22;45374;52.746;6.304;2023-05-01T07:02:06;11.60;99.90
59556;DHT22;45374;52.746;6.304;2023-05-01T07:04:31;11.60;99.90
59556;DHT22;45374;52.746;6.304;2023-05-01T07:06:57;11.70;99.90
59556;DHT22;45374;52.746;6.304;2023-05-01T07:09:26;11.70;99.90
59556;DHT22;45374;52.746;6.304;2023-05-01T07:11:52;11.60;99.90
59556;DHT22;45374;52.746;6.304;2023-05-01T07:14:17;11.60;99.90
59556;DHT22;45374;52.746;6.304;2023-05-01T07:20:00;11.50;99.90
59556;DHT22;45374;52.746;6.304;2023-05-01T07:23:02;11.50;99.90
59556;DHT22;45374;52.746;6.304;2023-05-01T07:25:30;11.40;99.90
59556;DHT22;45374;52.746;6.304;2023-05-01T07:27:55;11.40;99.90
59556;DHT22;45374;52.746;6.304;2023-05-01T07:30:21;11.40;99.90
59556;DHT22;45374;52.746;6.304;2023-05-01T07:32:46;11.50;99.90
59556;DHT22;45374;52.746;6.304;2023-05-01T07:35:12;11.50;99.90
59556;DHT22;45374;52.746;6.304;2023-05-01T07:37:38;11.70;99.90
59556;DHT22;45374;52.746;6.304;2023-05-01T07:40:03;11.80;99.90
59556;DHT22;45374;52.746;6.304;2023-05-01T07:42:29;11.90;99.90
59556;DHT22;45374;52.746;6.304;2023-05-01T07:45:02;11.90;99.90
59556;DHT22;45374;52.746;6.304;2023-05-01T07:47:27;12.00;99.90
59556;DHT22;45374;52.746;6.304;2023-05-01T07:49:59;11.90;99.90
59556;DHT22;45374;52.746;6.304;2023-05-01T07:52:32;12.10;99.90
59556;DHT22;45374;52.746;6.304;2023-05-01T07:54:58;12.10;99.90
59556;DHT22;45374;52.746;6.304;2023-05-01T07:57:23;12.20;99.90
59556;DHT22;45374;52.746;6.304;2023-05-01T07:59:54;12.20;99.90
59556;DHT22;45374;52.746;6.304;2023-05-01T08:02:22;12.30;99.90
59556;DHT22;45374;52.746;6.304;2023-05-01T08:04:48;12.50;99.90
59556;DHT22;45374;52.746;6.304;2023-05-01T08:07:15;12.60;99.90
59556;DHT22;45374;52.746;6.304;2023-05-01T08:09:41;12.70;99.90
59556;DHT22;45374;52.746;6.304;2023-05-01T08:12:06;12.80;99.90
59556;DHT22;45374;52.746;6.304;2023-05-01T08:14:32;12.90;99.90
59556;DHT22;45374;52.746;6.304;2023-05-01T08:16:58;13.00;99.90
59556;DHT22;45374;52.746;6.304;2023-05-01T08:19:25;13.20;99.90
59556;DHT22;45374;52.746;6.304;2023-05-01T08:21:52;13.20;99.90
59556;DHT22;45374;52.746;6.304;2023-05-01T08:24:18;13.30;99.90
59556;DHT22;45374;52.746;6.304;2023-05-01T08:26:52;13.30;99.90
59556;DHT22;45374;52.746;6.304;2023-05-01T08:29:18;13.30;99.90
59556;DHT22;45374;52.746;6.304;2023-05-01T08:31:44;13.40;99.90
59556;DHT22;45374;52.746;6.304;2023-05-01T08:34:09;13.50;99.90
59556;DHT22;45374;52.746;6.304;2023-05-01T08:36:35;13.70;99.90
59556;DHT22;45374;52.746;6.304;2023-05-01T08:39:00;13.60;99.90
59556;DHT22;45374;52.746;6.304;2023-05-01T08:41:26;13.70;99.90
59556;DHT22;45374;52.746;6.304;2023-05-01T08:43:55;13.80;99.90
59556;DHT22;45374;52.746;6.304;2023-05-01T08:46:30;13.80;99.90
59556;DHT22;45374;52.746;6.304;2023-05-01T08:48:59;13.90;99.90
59556;DHT22;45374;52.746;6.304;2023-05-01T08:51:26;14.00;99.90
59556;DHT22;45374;52.746;6.304;2023-05-01T08:53:55;14.00;99.90
59556;DHT22;45374;52.746;6.304;2023-05-01T08:56:21;14.00;99.90
59556;DHT22;45374;52.746;6.304;2023-05-01T08:58:48;14.10;99.90
59556;DHT22;45374;52.746;6.304;2023-05-01T09:01:16;14.20;99.90
59556;DHT22;45374;52.746;6.304;2023-05-01T09:03:43;14.30;99.90
59556;DHT22;45374;52.746;6.304;2023-05-01T09:06:10;14.50;99.90
59556;DHT22;45374;52.746;6.304;2023-05-01T09:08:36;14.50;99.90
59556;DHT22;45374;52.746;6.304;2023-05-01T09:11:03;14.70;99.90
59556;DHT22;45374;52.746;6.304;2023-05-01T09:13:30;14.80;99.90
59556;DHT22;45374;52.746;6.304;2023-05-01T09:15:56;14.90;99.90
59556;DHT22;45374;52.746;6.304;2023-05-01T09:18:21;14.90;99.90
59556;DHT22;45374;52.746;6.304;2023-05-01T09:20:57;15.00;99.90
59556;DHT22;45374;52.746;6.304;2023-05-01T09:23:23;15.00;99.90
59556;DHT22;45374;52.746;6.304;2023-05-01T09:25:54;15.20;99.90
59556;DHT22;45374;52.746;6.304;2023-05-01T09:28:41;15.40;99.90
59556;DHT22;45374;52.746;6.304;2023-05-01T09:31:28;15.40;99.90
59556;DHT22;45374;52.746;6.304;2023-05-01T09:34:03;15.40;99.90
59556;DHT22;45374;52.746;6.304;2023-05-01T09:36:31;15.50;99.90
59556;DHT22;45374;52.746;6.304;2023-05-01T09:38:58;15.70;99.90
59556;DHT22;45374;52.746;6.304;2023-05-01T09:41:29;15.90;99.90
59556;DHT22;45374;52.746;6.304;2023-05-01T09:43:58;16.10;99.90
59556;DHT22;45374;52.746;6.304;2023-05-01T09:46:25;16.20;99.90
59556;DHT22;45374;52.746;6.304;2023-05-01T09:48:58;16.20;99.90
59556;DHT22;45374;52.746;6.304;2023-05-01T09:51:27;16.20;99.90
59556;DHT22;45374;52.746;6.304;2023-05-01T09:54:16;16.30;99.90
59556;DHT22;45374;52.746;6.304;2023-05-01T09:56:46;16.40;99.90
59556;DHT22;45374;52.746;6.304;2023-05-01T09:59:20;16.40;99.90
59556;DHT22;45374;52.746;6.304;2023-05-01T10:01:46;16.50;99.90
59556;DHT22;45374;52.746;6.304;2023-05-01T10:04:14;16.60;99.90
59556;DHT22;45374;52.746;6.304;2023-05-01T10:06:40;16.70;99.90
59556;DHT22;45374;52.746;6.304;2023-05-01T10:09:07;16.70;99.90
59556;DHT22;45374;52.746;6.304;2023-05-01T10:11:51;16.70;99.90
59556;DHT22;45374;52.746;6.304;2023-05-01T10:14:18;16.80;99.90
59556;DHT22;45374;52.746;6.304;2023-05-01T10:16:44;16.80;99.90
59556;DHT22;45374;52.746;6.304;2023-05-01T10:19:11;16.80;99.90
59556;DHT22;45374;52.746;6.304;2023-05-01T10:21:37;16.80;99.90
59556;DHT22;45374;52.746;6.304;2023-05-01T10:24:03;16.90;99.90
59556;DHT22;45374;52.746;6.304;2023-05-01T10:26:32;17.00;99.90
59556;DHT22;45374;52.746;6.304;2023-05-01T10:28:59;17.00;99.90
59556;DHT22;45374;52.746;6.304;2023-05-01T10:31:25;17.10;99.90
59556;DHT22;45374;52.746;6.304;2023-05-01T10:33:53;17.30;99.90
59556;DHT22;45374;52.746;6.304;2023-05-01T10:36:25;17.50;99.90
59556;DHT22;45374;52.746;6.304;2023-05-01T10:38:53;17.70;99.90
59556;DHT22;45374;52.746;6.304;2023-05-01T10:52:00;18.30;99.90
59556;DHT22;45374;52.746;6.304;2023-05-01T10:54:42;18.40;99.90
59556;DHT22;45374;52.746;6.304;2023-05-01T10:57:07;18.40;99.90
59556;DHT22;45374;52.746;6.304;2023-05-01T11:08:32;18.30;99.90
59556;DHT22;45374;52.746;6.304;2023-05-01T11:14:04;18.40;99.90
59556;DHT22;45374;52.746;6.304;2023-05-01T11:19:48;18.60;99.90
59556;DHT22;45374;52.746;6.304;2023-05-01T11:22:14;18.70;99.90
59556;DHT22;45374;52.746;6.304;2023-05-01T11:24:39;18.70;99.90
59556;DHT22;45374;52.746;6.304;2023-05-01T11:27:07;18.80;99.90
59556;DHT22;45374;52.746;6.304;2023-05-01T11:29:49;18.80;99.90
59556;DHT22;45374;52.746;6.304;2023-05-01T11:32:18;18.90;98.30
59556;DHT22;45374;52.746;6.304;2023-05-01T11:38:24;19.00;99.90
59556;DHT22;45374;52.746;6.304;2023-05-01T11:40:58;19.20;99.20
59556;DHT22;45374;52.746;6.304;2023-05-01T11:43:50;19.00;97.00
59556;DHT22;45374;52.746;6.304;2023-05-01T11:46:27;19.00;96.50
59556;DHT22;45374;52.746;6.304;2023-05-01T11:49:01;19.00;98.10
59556;DHT22;45374;52.746;6.304;2023-05-01T11:51:27;19.00;97.80
59556;DHT22;45374;52.746;6.304;2023-05-01T12:00:37;19.00;97.90
59556;DHT22;45374;52.746;6.304;2023-05-01T12:03:08;19.10;95.90
59556;DHT22;45374;52.746;6.304;2023-05-01T12:05:36;19.00;96.50
59556;DHT22;45374;52.746;6.304;2023-05-01T12:11:10;18.90;98.30
59556;DHT22;45374;52.746;6.304;2023-05-01T12:13:38;18.90;97.30
59556;DHT22;45374;52.746;6.304;2023-05-01T12:16:04;18.90;98.30
59556;DHT22;45374;52.746;6.304;2023-05-01T12:18:30;19.10;99.80
59556;DHT22;45374;52.746;6.304;2023-05-01T12:20:55;19.20;97.30
59556;DHT22;45374;52.746;6.304;2023-05-01T12:23:35;19.20;98.50
59556;DHT22;45374;52.746;6.304;2023-05-01T12:26:20;19.40;99.30
59556;DHT22;45374;52.746;6.304;2023-05-01T12:29:00;19.50;97.00
59556;DHT22;45374;52.746;6.304;2023-05-01T12:31:27;19.60;97.70
59556;DHT22;45374;52.746;6.304;2023-05-01T12:33:56;19.60;97.70
59556;DHT22;45374;52.746;6.304;2023-05-01T12:36:23;19.50;96.60
59556;DHT22;45374;52.746;6.304;2023-05-01T12:39:09;19.50;94.10
59556;DHT22;45374;52.746;6.304;2023-05-01T12:44:24;19.60;96.60
59556;DHT22;45374;52.746;6.304;2023-05-01T12:47:10;19.80;97.30
59556;DHT22;45374;52.746;6.304;2023-05-01T12:49:36;20.00;93.50
59556;DHT22;45374;52.746;6.304;2023-05-01T12:52:06;19.80;95.80
59556;DHT22;45374;52.746;6.304;2023-05-01T12:54:37;19.80;96.50
59556;DHT22;45374;52.746;6.304;2023-05-01T12:57:13;19.60;95.70
59556;DHT22;45374;52.746;6.304;2023-05-01T12:59:43;19.30;95.30
59556;DHT22;45374;52.746;6.304;2023-05-01T13:02:14;19.30;96.30
59556;DHT22;45374;52.746;6.304;2023-05-01T13:04:42;19.20;98.40
59556;DHT22;45374;52.746;6.304;2023-05-01T13:07:12;19.00;99.10
59556;DHT22;45374;52.746;6.304;2023-05-01T13:09:39;18.90;99.90
59556;DHT22;45374;52.746;6.304;2023-05-01T13:19:27;18.60;99.90
59556;DHT22;45374;52.746;6.304;2023-05-01T13:21:54;18.80;99.90
59556;DHT22;45374;52.746;6.304;2023-05-01T13:24:20;18.90;99.90
59556;DHT22;45374;52.746;6.304;2023-05-01T13:26:48;18.80;99.90
59556;DHT22;45374;52.746;6.304;2023-05-01T13:29:20;18.70;99.90
59556;DHT22;45374;52.746;6.304;2023-05-01T13:31:47;18.60;99.80
59556;DHT22;45374;52.746;6.304;2023-05-01T13:34:16;18.60;99.90
59556;DHT22;45374;52.746;6.304;2023-05-01T13:36:43;18.40;99.90
59556;DHT22;45374;52.746;6.304;2023-05-01T13:39:08;18.40;99.90
59556;DHT22;45374;52.746;6.304;2023-05-01T13:41:35;18.30;99.30
59556;DHT22;45374;52.746;6.304;2023-05-01T13:44:30;18.30;99.90
59556;DHT22;45374;52.746;6.304;2023-05-01T13:47:02;18.30;98.40
59556;DHT22;45374;52.746;6.304;2023-05-01T13:49:27;18.30;98.90
59556;DHT22;45374;52.746;6.304;2023-05-01T13:51:53;18.20;99.90
59556;DHT22;45374;52.746;6.304;2023-05-01T13:54:19;18.10;99.90
59556;DHT22;45374;52.746;6.304;2023-05-01T13:56:45;18.10;99.90
59556;DHT22;45374;52.746;6.304;2023-05-01T13:59:12;18.20;99.90
59556;DHT22;45374;52.746;6.304;2023-05-01T14:01:41;18.40;99.90
59556;DHT22;45374;52.746;6.304;2023-05-01T14:04:17;18.50;99.90
59556;DHT22;45374;52.746;6.304;2023-05-01T14:06:43;18.40;99.90
59556;DHT22;45374;52.746;6.304;2023-05-01T14:09:09;18.30;99.90
59556;DHT22;45374;52.746;6.304;2023-05-01T14:11:42;18.10;99.90
59556;DHT22;45374;52.746;6.304;2023-05-01T14:14:13;17.90;99.90
59556;DHT22;45374;52.746;6.304;2023-05-01T14:16:39;17.70;99.90
59556;DHT22;45374;52.746;6.304;2023-05-01T14:19:06;17.80;99.90
59556;DHT22;45374;52.746;6.304;2023-05-01T14:21:37;17.80;99.90
59556;DHT22;45374;52.746;6.304;2023-05-01T14:24:06;18.00;99.90
59556;DHT22;45374;52.746;6.304;2023-05-01T14:26:32;18.10;99.90
59556;DHT22;45374;52.746;6.304;2023-05-01T14:28:57;18.10;99.90
59556;DHT22;45374;52.746;6.304;2023-05-01T14:31:28;18.00;99.90
59556;DHT22;45374;52.746;6.304;2023-05-01T14:33:59;17.90;99.90
59556;DHT22;45374;52.746;6.304;2023-05-01T14:36:26;17.80;99.90
59556;DHT22;45374;52.746;6.304;2023-05-01T14:38:55;17.80;99.90
59556;DHT22;45374;52.746;6.304;2023-05-01T14:41:21;17.90;99.90
59556;DHT22;45374;52.746;6.304;2023-05-01T14:43:46;17.90;99.90
59556;DHT22;45374;52.746;6.304;2023-05-01T14:48:54;17.90;99.90
59556;DHT22;45374;52.746;6.304;2023-05-01T14:51:19;18.00;99.90
59556;DHT22;45374;52.746;6.304;2023-05-01T14:53:45;18.00;99.90
59556;DHT22;45374;52.746;6.304;2023-05-01T14:56:11;17.90;99.90
59556;DHT22;45374;52.746;6.304;2023-05-01T14:58:37;17.90;99.90
59556;DHT22;45374;52.746;6.304;2023-05-01T15:01:03;17.90;99.90
59556;DHT22;45374;52.746;6.304;2023-05-01T15:03:28;17.90;99.90
59556;DHT22;45374;52.746;6.304;2023-05-01T15:05:54;17.90;99.90
59556;DHT22;45374;52.746;6.304;2023-05-01T15:08:21;17.90;99.90
59556;DHT22;45374;52.746;6.304;2023-05-01T15:10:47;17.90;99.90
59556;DHT22;45374;52.746;6.304;2023-05-01T15:13:12;17.80;99.90
59556;DHT22;45374;52.746;6.304;2023-05-01T15:15:38;17.70;99.90
59556;DHT22;45374;52.746;6.304;2023-05-01T15:18:03;17.50;99.90
59556;DHT22;45374;52.746;6.304;2023-05-01T15:20:30;17.30;99.90
59556;DHT22;45374;52.746;6.304;2023-05-01T15:22:56;17.20;99.90
59556;DHT22;45374;52.746;6.304;2023-05-01T15:25:21;17.10;99.90
59556;DHT22;45374;52.746;6.304;2023-05-01T15:27:47;17.00;99.90
59556;DHT22;45374;52.746;6.304;2023-05-01T15:30:14;16.90;99.90
59556;DHT22;45374;52.746;6.304;2023-05-01T15:32:49;16.90;99.90
59556;DHT22;45374;52.746;6.304;2023-05-01T15:35:15;17.00;99.90
59556;DHT22;45374;52.746;6.304;2023-05-01T15:37:43;17.00;99.90
59556;DHT22;45374;52.746;6.304;2023-05-01T15:40:10;17.10;99.90
59556;DHT22;45374;52.746;6.304;2023-05-01T15:42:35;17.20;99.90
59556;DHT22;45374;52.746;6.304;2023-05-01T15:45:01;17.20;99.90
59556;DHT22;45374;52.746;6.304;2023-05-01T15:47:27;17.20;99.90
59556;DHT22;45374;52.746;6.304;2023-05-01T15:49:53;17.10;99.90
59556;DHT22;45374;52.746;6.304;2023-05-01T15:52:18;17.00;99.90
59556;DHT22;45374;52.746;6.304;2023-05-01T15:54:47;17.00;99.90
59556;DHT22;45374;52.746;6.304;2023-05-01T15:57:13;17.00;99.90
59556;DHT22;45374;52.746;6.304;2023-05-01T15:59:42;17.00;99.90
59556;DHT22;45374;52.746;6.304;2023-05-01T16:02:07;17.10;99.90
59556;DHT22;45374;52.746;6.304;2023-05-01T16:04:33;17.40;99.90
59556;DHT22;45374;52.746;6.304;2023-05-01T16:07:01;17.50;99.90
59556;DHT22;45374;52.746;6.304;2023-05-01T16:09:29;17.40;99.90
59556;DHT22;45374;52.746;6.304;2023-05-01T16:11:56;17.30;99.90
59556;DHT22;45374;52.746;6.304;2023-05-01T16:14:22;17.30;99.90
59556;DHT22;45374;52.746;6.304;2023-05-01T16:16:47;17.20;99.90
59556;DHT22;45374;52.746;6.304;2023-05-01T16:19:14;17.00;99.90
59556;DHT22;45374;52.746;6.304;2023-05-01T16:21:43;16.90;99.90
59556;DHT22;45374;52.746;6.304;2023-05-01T16:24:25;16.80;99.90
59556;DHT22;45374;52.746;6.304;2023-05-01T16:26:51;16.70;99.90
59556;DHT22;45374;52.746;6.304;2023-05-01T16:29:17;16.60;99.90
59556;DHT22;45374;52.746;6.304;2023-05-01T16:31:43;16.50;99.90
59556;DHT22;45374;52.746;6.304;2023-05-01T16:34:13;16.30;99.90
59556;DHT22;45374;52.746;6.304;2023-05-01T16:36:40;16.20;99.90
59556;DHT22;45374;52.746;6.304;2023-05-01T16:39:13;16.10;99.90
59556;DHT22;45374;52.746;6.304;2023-05-01T16:41:43;16.10;99.90
59556;DHT22;45374;52.746;6.304;2023-05-01T16:44:12;16.00;99.90
59556;DHT22;45374;52.746;6.304;2023-05-01T16:46:53;16.00;99.90
59556;DHT22;45374;52.746;6.304;2023-05-01T16:49:18;16.00;99.90
59556;DHT22;45374;52.746;6.304;2023-05-01T16:51:44;15.90;99.90
59556;DHT22;45374;52.746;6.304;2023-05-01T16:54:11;15.80;99.90
59556;DHT22;45374;52.746;6.304;2023-05-01T16:56:37;15.60;99.90